createdAt,value
2023-03-17T00:01:18.734Z,94338.44
2023-03-17T00:03:47.402Z,94326.22
2023-03-17T00:06:13.849Z,94333.03
2023-03-17T00:08:41.574Z,94334.03
2023-03-17T00:11:09.145Z,94336.88
2023-03-17T00:13:35.738Z,94325.47
2023-03-17T00:16:04.412Z,94326.34
2023-03-17T00:18:31.943Z,94334.41
2023-03-17T00:21:00.534Z,94336.06
2023-03-17T00:23:27.121Z,94341.78
2023-03-17T00:25:53.710Z,94343.84
2023-03-17T00:28:21.297Z,94336.44
2023-03-17T00:30:47.875Z,94341.41
2023-03-17T00:33:15.464Z,94342.56
2023-03-17T00:35:42.064Z,94341.44
2023-03-17T00:38:08.645Z,94341.22
2023-03-17T00:40:36.252Z,94344.25
2023-03-17T00:43:03.835Z,94347.56
2023-03-17T00:45:30.441Z,94348.13
2023-03-17T00:47:56.879Z,94344.69
2023-03-17T00:50:23.617Z,94346.31
2023-03-17T00:52:51.214Z,94349.31
2023-03-17T00:55:17.605Z,94351.94
2023-03-17T00:57:44.034Z,94350.66
2023-03-17T01:00:10.430Z,94342.59
2023-03-17T01:02:36.840Z,94345.84
2023-03-17T01:05:06.690Z,94347.78
2023-03-17T01:07:33.961Z,94343.06
2023-03-17T01:10:00.535Z,94337.47
2023-03-17T01:12:29.136Z,94333.53
2023-03-17T01:14:56.745Z,94328.09
2023-03-17T01:17:24.330Z,94321.69
2023-03-17T01:19:50.933Z,94320.41
2023-03-17T01:22:17.524Z,94318.00
2023-03-17T01:24:46.123Z,94311.09
2023-03-17T01:27:12.715Z,94306.38
2023-03-17T01:29:41.308Z,94295.94
2023-03-17T01:32:07.889Z,94290.88
2023-03-17T01:34:34.322Z,94290.91
2023-03-17T01:37:00.739Z,94301.06
2023-03-17T01:39:28.694Z,94297.63
2023-03-17T01:41:56.273Z,94288.13
2023-03-17T01:44:23.875Z,94295.00
2023-03-17T01:46:50.321Z,94293.50
2023-03-17T01:49:16.787Z,94298.19
2023-03-17T01:51:43.213Z,94292.78
2023-03-17T01:54:09.674Z,94284.13
2023-03-17T01:56:36.095Z,94282.47
2023-03-17T01:59:03.427Z,94281.75
2023-03-17T02:01:31.048Z,94279.47
2023-03-17T02:03:58.654Z,94269.16
2023-03-17T02:06:26.228Z,94270.28
2023-03-17T02:08:52.693Z,94269.00
2023-03-17T02:11:19.129Z,94265.34
2023-03-17T02:13:45.584Z,94274.81
2023-03-17T02:16:12.612Z,94272.44
2023-03-17T02:18:40.208Z,94269.97
2023-03-17T02:21:06.650Z,94264.44
2023-03-17T02:23:33.078Z,94268.06
2023-03-17T02:25:59.530Z,94256.13
2023-03-17T02:28:27.598Z,94259.44
2023-03-17T02:30:54.241Z,94262.25
2023-03-17T02:33:21.818Z,94262.09
2023-03-17T02:35:49.449Z,94257.66
2023-03-17T02:38:17.005Z,94257.44
2023-03-17T02:40:43.594Z,94254.03
2023-03-17T02:43:11.184Z,94248.09
2023-03-17T02:45:39.790Z,94250.38
2023-03-17T02:48:08.382Z,94250.13
2023-03-17T02:50:35.998Z,94247.09
2023-03-17T02:53:03.577Z,94251.50
2023-03-17T02:55:30.224Z,94252.34
2023-03-17T02:57:57.758Z,94241.03
2023-03-17T03:00:25.357Z,94245.44
2023-03-17T03:02:52.029Z,94240.94
2023-03-17T03:05:18.918Z,94247.84
2023-03-17T03:07:45.370Z,94248.34
2023-03-17T03:10:12.829Z,94252.47
2023-03-17T03:12:40.345Z,94248.88
2023-03-17T03:15:07.911Z,94251.31
2023-03-17T03:17:34.361Z,94247.84
2023-03-17T03:20:00.801Z,94255.59
2023-03-17T03:22:27.238Z,94249.16
2023-03-17T03:24:54.255Z,94250.88
2023-03-17T03:27:20.895Z,94252.88
2023-03-17T03:29:48.439Z,94247.41
2023-03-17T03:32:15.017Z,94254.38
2023-03-17T03:34:41.861Z,94252.13
2023-03-17T03:37:08.276Z,94258.38
2023-03-17T03:39:35.822Z,94251.84
2023-03-17T03:42:02.540Z,94249.69
2023-03-17T03:44:30.121Z,94249.47
2023-03-17T03:46:58.708Z,94246.34
2023-03-17T03:49:25.308Z,94249.78
2023-03-17T03:51:51.740Z,94250.03
2023-03-17T03:54:18.478Z,94250.44
2023-03-17T03:56:45.071Z,94255.81
2023-03-17T03:59:11.480Z,94260.31
2023-03-17T04:01:38.266Z,94261.56
2023-03-17T04:04:04.865Z,94273.41
2023-03-17T04:06:31.455Z,94261.13
2023-03-17T04:08:58.505Z,94255.38
2023-03-17T04:11:26.605Z,94257.00
2023-03-17T04:13:53.285Z,94256.22
2023-03-17T04:16:21.877Z,94257.44
2023-03-17T04:18:48.357Z,94258.91
2023-03-17T04:21:14.841Z,94253.91
2023-03-17T04:23:41.266Z,94254.69
2023-03-17T04:26:07.738Z,94253.44
2023-03-17T04:28:34.153Z,94258.25
2023-03-17T04:31:00.600Z,94251.34
2023-03-17T04:33:28.017Z,94250.44
2023-03-17T04:35:54.912Z,94259.34
2023-03-17T04:38:22.180Z,94258.56
2023-03-17T04:40:49.771Z,94257.53
2023-03-17T04:43:16.163Z,94250.41
2023-03-17T04:45:43.013Z,94246.38
2023-03-17T04:48:09.601Z,94251.59
2023-03-17T04:50:36.173Z,94247.91
2023-03-17T04:53:03.793Z,94249.31
2023-03-17T04:55:30.173Z,94250.56
2023-03-17T04:57:56.591Z,94251.38
2023-03-17T05:00:23.582Z,94255.94
2023-03-17T05:02:50.184Z,94260.19
2023-03-17T05:05:16.614Z,94254.69
2023-03-17T05:07:43.362Z,94260.78
2023-03-17T05:10:11.966Z,94258.25
2023-03-17T05:12:38.403Z,94250.19
2023-03-17T05:15:04.784Z,94245.22
2023-03-17T05:17:31.728Z,94249.72
2023-03-17T05:19:58.163Z,94255.88
2023-03-17T05:22:24.904Z,94256.06
2023-03-17T05:24:51.498Z,94250.38
2023-03-17T05:27:18.081Z,94260.69
2023-03-17T05:29:44.519Z,94264.81
2023-03-17T05:32:10.938Z,94261.22
2023-03-17T05:34:37.370Z,94262.19
2023-03-17T05:37:03.760Z,94262.84
2023-03-17T05:39:30.218Z,94262.44
2023-03-17T05:41:57.650Z,94267.81
2023-03-17T05:44:24.069Z,94269.09
2023-03-17T05:46:50.483Z,94266.03
2023-03-17T05:49:16.874Z,94267.59
2023-03-17T05:51:43.302Z,94260.34
2023-03-17T05:54:09.757Z,94258.31
2023-03-17T05:56:36.153Z,94263.06
2023-03-17T05:59:02.574Z,94264.47
2023-03-17T06:01:28.991Z,94259.69
2023-03-17T06:03:57.100Z,94259.88
2023-03-17T06:06:24.746Z,94260.91
2023-03-17T06:08:51.200Z,94274.69
2023-03-17T06:11:17.789Z,94272.53
2023-03-17T06:13:44.549Z,94273.34
2023-03-17T06:16:11.181Z,94275.19
2023-03-17T06:18:38.778Z,94271.97
2023-03-17T06:21:05.401Z,94276.38
2023-03-17T06:23:31.911Z,94267.66
2023-03-17T06:25:58.486Z,94275.78
2023-03-17T06:28:24.952Z,94282.44
2023-03-17T06:30:52.141Z,94288.38
2023-03-17T06:33:18.978Z,94284.91
2023-03-17T06:35:45.409Z,94277.63
2023-03-17T06:38:12.882Z,94278.22
2023-03-17T06:40:39.541Z,94290.25
2023-03-17T06:43:07.160Z,94282.69
2023-03-17T06:45:33.796Z,94295.25
2023-03-17T06:48:01.335Z,94291.38
2023-03-17T06:50:27.915Z,94286.75
2023-03-17T06:52:54.309Z,94285.94
2023-03-17T06:55:20.753Z,94290.19
2023-03-17T06:57:49.159Z,94277.59
2023-03-17T07:00:17.327Z,94273.66
2023-03-17T07:02:43.728Z,94275.75
2023-03-17T07:05:10.122Z,94283.31
2023-03-17T07:07:36.539Z,94285.69
2023-03-17T07:10:03.801Z,94293.13
2023-03-17T07:12:30.411Z,94292.66
2023-03-17T07:14:56.828Z,94296.06
2023-03-17T07:17:23.279Z,94294.66
2023-03-17T07:19:49.697Z,94306.19
2023-03-17T07:22:16.770Z,94297.41
2023-03-17T07:24:43.328Z,94299.38
2023-03-17T07:27:09.789Z,94302.38
2023-03-17T07:29:36.249Z,94303.41
2023-03-17T07:32:03.101Z,94304.22
2023-03-17T07:34:29.532Z,94302.59
2023-03-17T07:36:58.690Z,94306.53
2023-03-17T07:39:25.120Z,94301.75
2023-03-17T07:41:51.542Z,94303.41
2023-03-17T07:44:17.988Z,94301.13
2023-03-17T07:46:44.423Z,94299.47
2023-03-17T07:49:11.251Z,94298.53
2023-03-17T07:51:38.862Z,94302.59
2023-03-17T07:54:05.437Z,94299.84
2023-03-17T07:56:31.860Z,94294.06
2023-03-17T07:58:58.647Z,94289.47
2023-03-17T08:01:25.243Z,94291.78
2023-03-17T08:03:51.707Z,94286.19
2023-03-17T08:06:18.144Z,94285.81
2023-03-17T08:08:44.544Z,94286.78
2023-03-17T08:11:10.977Z,94287.25
2023-03-17T08:13:37.395Z,94291.19
2023-03-17T08:16:03.849Z,94282.41
2023-03-17T08:18:30.277Z,94289.13
2023-03-17T08:20:56.721Z,94289.84
2023-03-17T08:23:23.217Z,94296.56
2023-03-17T08:25:49.631Z,94292.09
2023-03-17T08:28:16.716Z,94292.81
2023-03-17T08:30:43.234Z,94296.03
2023-03-17T08:33:09.929Z,94289.59
2023-03-17T08:35:37.534Z,94292.53
2023-03-17T08:38:03.969Z,94290.03
2023-03-17T08:40:30.666Z,94292.41
2023-03-17T08:42:57.349Z,94292.88
2023-03-17T08:45:23.766Z,94292.66
2023-03-17T08:47:50.164Z,94291.31
2023-03-17T08:50:16.585Z,94291.00
2023-03-17T08:52:43.026Z,94289.47
2023-03-17T08:55:09.453Z,94289.75
2023-03-17T08:57:36.909Z,94282.38
2023-03-17T09:00:03.534Z,94276.63
2023-03-17T09:02:30.172Z,94275.25
2023-03-17T09:04:56.658Z,94280.81
2023-03-17T09:07:23.418Z,94280.09
2023-03-17T09:09:52.493Z,94277.66
2023-03-17T09:12:18.960Z,94282.31
2023-03-17T09:14:46.890Z,94269.63
2023-03-17T09:17:14.567Z,94276.53
2023-03-17T09:19:41.037Z,94271.56
2023-03-17T09:22:07.605Z,94272.16
2023-03-17T09:24:34.084Z,94282.91
2023-03-17T09:27:00.815Z,94275.00
2023-03-17T09:29:27.691Z,94276.25
2023-03-17T09:31:54.401Z,94265.41
2023-03-17T09:34:21.932Z,94271.53
2023-03-17T09:36:48.408Z,94274.06
2023-03-17T09:39:15.105Z,94265.06
2023-03-17T09:41:41.513Z,94262.28
2023-03-17T09:44:08.280Z,94264.94
2023-03-17T09:46:34.918Z,94256.44
2023-03-17T09:49:02.467Z,94257.84
2023-03-17T09:51:29.058Z,94253.13
2023-03-17T09:53:55.479Z,94255.72
2023-03-17T09:56:21.890Z,94250.44
2023-03-17T09:58:51.126Z,94263.84
2023-03-17T10:01:18.486Z,94255.22
2023-03-17T10:03:44.982Z,94257.59
2023-03-17T10:06:13.306Z,94251.44
2023-03-17T10:08:40.198Z,94247.00
2023-03-17T10:11:06.638Z,94251.56
2023-03-17T10:13:33.055Z,94255.41
2023-03-17T10:15:59.490Z,94253.41
2023-03-17T10:18:25.939Z,94249.94
2023-03-17T10:20:52.353Z,94243.16
2023-03-17T10:23:18.733Z,94251.19
2023-03-17T10:25:46.310Z,94240.59
2023-03-17T10:28:12.948Z,94238.81
2023-03-17T10:30:40.517Z,94244.94
2023-03-17T10:33:07.394Z,94226.63
2023-03-17T10:35:34.009Z,94226.25
2023-03-17T10:38:13.930Z,94238.53
2023-03-17T10:40:40.951Z,94232.47
2023-03-17T10:43:07.365Z,94225.94
2023-03-17T10:45:33.840Z,94230.16
2023-03-17T10:48:00.716Z,94234.34
2023-03-17T10:50:27.310Z,94231.16
2023-03-17T10:52:53.902Z,94226.72
2023-03-17T10:55:20.796Z,94221.50
2023-03-17T10:57:47.327Z,94224.53
2023-03-17T11:00:13.743Z,94226.97
2023-03-17T11:02:41.284Z,94225.59
2023-03-17T11:05:08.832Z,94232.56
2023-03-17T11:07:40.886Z,94222.75
2023-03-17T11:10:07.465Z,94220.66
2023-03-17T11:12:34.656Z,94217.78
2023-03-17T11:15:02.250Z,94210.81
2023-03-17T11:17:29.841Z,94213.00
2023-03-17T11:19:57.455Z,94209.13
2023-03-17T11:22:25.039Z,94213.78
2023-03-17T11:24:51.480Z,94199.41
2023-03-17T11:27:17.906Z,94188.41
2023-03-17T11:29:44.291Z,94204.34
2023-03-17T11:32:10.705Z,94199.00
2023-03-17T11:34:37.169Z,94192.03
2023-03-17T11:37:03.625Z,94181.38
2023-03-17T11:39:32.177Z,94177.06
2023-03-17T11:41:59.763Z,94168.50
2023-03-17T11:44:27.374Z,94167.22
2023-03-17T11:46:53.775Z,94178.47
2023-03-17T11:49:20.537Z,94179.69
2023-03-17T11:51:47.365Z,94172.28
2023-03-17T11:54:14.719Z,94175.78
2023-03-17T11:56:42.308Z,94185.75
2023-03-17T11:59:08.733Z,94171.22
2023-03-17T12:01:35.115Z,94180.22
2023-03-17T12:04:02.176Z,94181.69
2023-03-17T12:06:29.670Z,94176.06
2023-03-17T12:08:56.102Z,94174.69
2023-03-17T12:11:22.838Z,94174.06
2023-03-17T12:13:49.744Z,94163.16
2023-03-17T12:16:17.066Z,94168.53
2023-03-17T12:18:44.634Z,94173.84
2023-03-17T12:21:12.216Z,94162.41
2023-03-17T12:23:38.804Z,94157.13
2023-03-17T12:26:05.424Z,94157.16
2023-03-17T12:28:32.245Z,94162.28
2023-03-17T12:30:58.684Z,94173.38
2023-03-17T12:33:25.114Z,94159.88
2023-03-17T12:35:52.777Z,94155.41
2023-03-17T12:38:20.336Z,94157.88
2023-03-17T12:40:47.931Z,94150.50
2023-03-17T12:43:14.504Z,94158.91
2023-03-17T12:45:41.010Z,94160.09
2023-03-17T12:48:07.463Z,94157.63
2023-03-17T12:50:34.252Z,94164.56
2023-03-17T12:53:01.075Z,94153.72
2023-03-17T12:55:29.586Z,94154.91
2023-03-17T12:57:57.038Z,94156.09
2023-03-17T13:00:24.667Z,94149.00
2023-03-17T13:02:51.165Z,94146.47
2023-03-17T13:05:17.696Z,94140.94
2023-03-17T13:07:44.419Z,94133.91
2023-03-17T13:10:13.045Z,94132.53
2023-03-17T13:12:40.609Z,94136.97
2023-03-17T13:15:07.197Z,94130.97
2023-03-17T13:17:33.815Z,94130.50
2023-03-17T13:20:00.504Z,94127.84
2023-03-17T13:22:29.104Z,94123.94
2023-03-17T13:24:56.717Z,94124.84
2023-03-17T13:27:23.496Z,94123.72
2023-03-17T13:29:50.971Z,94121.97
2023-03-17T13:32:18.462Z,94110.19
2023-03-17T13:34:46.047Z,94111.53
2023-03-17T13:37:12.639Z,94118.88
2023-03-17T13:39:39.246Z,94109.50
2023-03-17T13:42:17.237Z,94116.06
2023-03-17T13:44:44.259Z,94110.19
2023-03-17T13:47:10.693Z,94106.50
2023-03-17T13:49:37.619Z,94097.44
2023-03-17T13:52:05.218Z,94091.41
2023-03-17T13:54:32.823Z,94096.06
2023-03-17T13:57:00.409Z,94101.28
2023-03-17T13:59:27.996Z,94102.44
2023-03-17T14:01:56.579Z,94085.91
2023-03-17T14:04:24.234Z,94085.66
2023-03-17T14:06:52.794Z,94081.63
2023-03-17T14:09:19.410Z,94086.44
2023-03-17T14:11:47.969Z,94083.06
2023-03-17T14:14:26.027Z,94083.25
2023-03-17T14:17:00.329Z,94084.47
2023-03-17T14:19:26.933Z,94078.25
2023-03-17T14:21:53.516Z,94078.72
2023-03-17T14:24:20.140Z,94078.56
2023-03-17T14:26:46.735Z,94076.72
2023-03-17T14:29:13.405Z,94075.06
2023-03-17T14:31:40.099Z,94074.84
2023-03-17T14:34:08.045Z,94082.03
2023-03-17T14:36:35.252Z,94069.75
2023-03-17T14:39:01.848Z,94064.56
2023-03-17T14:41:28.430Z,94062.94
2023-03-17T14:43:55.003Z,94065.91
2023-03-17T14:46:22.672Z,94063.91
2023-03-17T14:48:50.205Z,94063.09
2023-03-17T14:51:17.896Z,94067.56
2023-03-17T14:53:45.687Z,94063.50
2023-03-17T14:56:12.695Z,94061.22
2023-03-17T14:58:41.027Z,94055.06
2023-03-17T15:01:07.674Z,94057.28
2023-03-17T15:03:34.333Z,94063.78
2023-03-17T15:06:01.973Z,94061.84
2023-03-17T15:08:29.099Z,94051.47
2023-03-17T15:10:56.304Z,94048.69
2023-03-17T15:13:24.034Z,94050.78
2023-03-17T15:15:51.606Z,94050.22
2023-03-17T15:18:18.249Z,94043.00
2023-03-17T15:20:45.124Z,94051.31
2023-03-17T15:23:12.651Z,94040.19
2023-03-17T15:25:39.517Z,94042.25
2023-03-17T15:28:06.085Z,94043.56
2023-03-17T15:30:46.270Z,94042.91
2023-03-17T15:33:14.262Z,94042.00
2023-03-17T15:35:45.985Z,94043.97
2023-03-17T15:38:14.615Z,94039.34
2023-03-17T15:40:41.261Z,94039.94
2023-03-17T15:43:08.856Z,94037.72
2023-03-17T15:45:37.570Z,94036.22
2023-03-17T15:48:05.182Z,94040.75
2023-03-17T15:50:31.920Z,94043.34
2023-03-17T15:52:59.390Z,94031.72
2023-03-17T15:55:28.413Z,94032.19
2023-03-17T15:57:55.878Z,94035.72
2023-03-17T16:00:26.666Z,94031.78
2023-03-17T16:02:53.298Z,94030.94
2023-03-17T16:05:20.062Z,94038.91
2023-03-17T16:07:47.663Z,94037.09
2023-03-17T16:10:14.556Z,94030.75
2023-03-17T16:12:42.099Z,94027.00
2023-03-17T16:15:20.291Z,94029.09
2023-03-17T16:17:49.680Z,94030.19
2023-03-17T16:20:17.666Z,94031.03
2023-03-17T16:22:45.437Z,94027.44
2023-03-17T16:25:12.441Z,94024.91
2023-03-17T16:27:39.693Z,94029.56
2023-03-17T16:30:06.578Z,94026.53
2023-03-17T16:32:33.128Z,94034.84
2023-03-17T16:34:59.639Z,94028.63
2023-03-17T16:37:26.112Z,94033.00
2023-03-17T16:39:52.680Z,94023.31
2023-03-17T16:42:19.168Z,94034.75
2023-03-17T16:44:45.701Z,94029.22
2023-03-17T16:47:12.197Z,94037.44
2023-03-17T16:49:39.399Z,94049.34
2023-03-17T16:52:05.990Z,94049.16
2023-03-17T16:54:32.840Z,94046.69
2023-03-17T16:56:59.293Z,94050.50
2023-03-17T16:59:26.806Z,94049.47
2023-03-17T17:01:54.504Z,94058.34
2023-03-17T17:04:22.039Z,94056.13
2023-03-17T17:06:49.685Z,94055.50
2023-03-17T17:09:17.433Z,94053.66
2023-03-17T17:11:44.239Z,94055.13
2023-03-17T17:14:11.201Z,94066.94
2023-03-17T17:16:37.781Z,94051.56
2023-03-17T17:19:04.303Z,94067.69
2023-03-17T17:21:30.806Z,94064.56
2023-03-17T17:23:57.334Z,94060.47
2023-03-17T17:26:25.086Z,94070.66
2023-03-17T17:28:51.810Z,94071.25
2023-03-17T17:31:19.637Z,94073.09
2023-03-17T17:33:46.435Z,94082.91
2023-03-17T17:36:13.222Z,94079.00
2023-03-17T17:38:40.782Z,94076.97
2023-03-17T17:41:07.448Z,94079.22
2023-03-17T17:43:35.066Z,94082.91
2023-03-17T17:46:01.803Z,94082.53
2023-03-17T17:48:29.634Z,94080.69
2023-03-17T17:50:56.518Z,94084.78
2023-03-17T17:53:23.901Z,94088.69
2023-03-17T17:55:50.359Z,94090.16
2023-03-17T17:58:17.149Z,94088.50
2023-03-17T18:00:43.715Z,94091.78
2023-03-17T18:03:10.188Z,94086.91
2023-03-17T18:05:36.998Z,94087.31
2023-03-17T18:08:03.657Z,94086.03
2023-03-17T18:10:30.611Z,94087.66
2023-03-17T18:12:57.198Z,94085.59
2023-03-17T18:15:23.627Z,94091.91
2023-03-17T18:17:50.041Z,94085.63
2023-03-17T18:20:16.532Z,94090.13
2023-03-17T18:22:43.581Z,94098.66
2023-03-17T18:25:11.173Z,94098.88
2023-03-17T18:27:37.807Z,94099.09
2023-03-17T18:30:06.401Z,94110.09
2023-03-17T18:32:33.031Z,94113.78
2023-03-17T18:34:59.699Z,94115.41
2023-03-17T18:37:26.355Z,94123.75
2023-03-17T18:40:11.626Z,94124.13
2023-03-17T18:42:39.712Z,94127.13
2023-03-17T18:45:07.376Z,94131.81
2023-03-17T18:47:33.836Z,94129.47
2023-03-17T18:50:00.591Z,94135.31
2023-03-17T18:52:28.182Z,94134.41
2023-03-17T18:54:54.885Z,94128.97
2023-03-17T18:57:21.514Z,94136.34
2023-03-17T18:59:47.984Z,94129.69
2023-03-17T19:02:15.040Z,94136.03
2023-03-17T19:04:41.816Z,94136.44
2023-03-17T19:07:09.511Z,94137.25
2023-03-17T19:09:36.210Z,94141.31
2023-03-17T19:12:03.059Z,94139.47
2023-03-17T19:14:29.601Z,94137.84
2023-03-17T19:16:56.352Z,94143.75
2023-03-17T19:19:24.050Z,94136.03
2023-03-17T19:21:50.871Z,94136.03
2023-03-17T19:24:18.332Z,94133.69
2023-03-17T19:26:45.054Z,94136.88
2023-03-17T19:29:12.083Z,94147.41
2023-03-17T19:31:39.739Z,94151.84
2023-03-17T19:34:06.255Z,94156.72
2023-03-17T19:36:32.712Z,94157.56
2023-03-17T19:38:59.158Z,94159.03
2023-03-17T19:41:25.603Z,94154.34
2023-03-17T19:43:52.103Z,94161.88
2023-03-17T19:46:19.165Z,94166.06
2023-03-17T19:48:46.013Z,94165.16
2023-03-17T19:51:12.493Z,94169.28
2023-03-17T19:53:38.966Z,94168.28
2023-03-17T19:56:05.971Z,94171.22
2023-03-17T19:58:33.619Z,94172.56
2023-03-17T20:01:00.340Z,94173.03
2023-03-17T20:03:27.223Z,94182.22
2023-03-17T20:05:53.691Z,94179.38
2023-03-17T20:08:20.600Z,94188.75
2023-03-17T20:10:48.199Z,94183.28
2023-03-17T20:13:15.829Z,94179.88
2023-03-17T20:15:43.452Z,94187.22
2023-03-17T20:18:10.991Z,94193.44
2023-03-17T20:20:38.117Z,94182.50
2023-03-17T20:23:04.525Z,94186.03
2023-03-17T20:25:30.993Z,94194.88
2023-03-17T20:27:57.427Z,94193.66
2023-03-17T20:30:23.890Z,94186.88
2023-03-17T20:32:52.116Z,94189.34
2023-03-17T20:35:19.657Z,94194.38
2023-03-17T20:37:48.265Z,94203.19
2023-03-17T20:40:16.104Z,94197.13
2023-03-17T20:42:42.517Z,94206.41
2023-03-17T20:45:09.031Z,94201.03
2023-03-17T20:47:35.459Z,94201.91
2023-03-17T20:50:02.494Z,94211.53
2023-03-17T20:52:30.209Z,94205.69
2023-03-17T20:54:56.840Z,94205.31
2023-03-17T20:57:23.289Z,94202.47
2023-03-17T20:59:49.726Z,94201.78
2023-03-17T21:02:16.147Z,94207.22
2023-03-17T21:04:43.079Z,94211.78
2023-03-17T21:07:10.645Z,94212.69
2023-03-17T21:09:37.356Z,94218.78
2023-03-17T21:12:03.789Z,94217.16
2023-03-17T21:14:30.232Z,94218.84
2023-03-17T21:16:57.137Z,94219.97
2023-03-17T21:19:24.722Z,94222.22
2023-03-17T21:21:52.413Z,94222.03
2023-03-17T21:24:18.987Z,94226.59
2023-03-17T21:26:45.422Z,94230.91
2023-03-17T21:29:12.200Z,94226.97
2023-03-17T21:31:38.827Z,94227.47
2023-03-17T21:34:06.336Z,94228.34
2023-03-17T21:36:33.930Z,94225.84
2023-03-17T21:39:01.540Z,94227.03
2023-03-17T21:41:30.109Z,94220.41
2023-03-17T21:43:57.733Z,94231.66
2023-03-17T21:46:25.291Z,94233.94
2023-03-17T21:48:51.886Z,94232.97
2023-03-17T21:51:18.379Z,94237.88
2023-03-17T21:53:44.852Z,94240.16
2023-03-17T21:56:12.613Z,94237.94
2023-03-17T21:58:39.371Z,94244.53
2023-03-17T22:01:07.024Z,94235.31
2023-03-17T22:03:33.555Z,94238.59
2023-03-17T22:06:00.023Z,94241.88
2023-03-17T22:08:27.850Z,94244.31
2023-03-17T22:10:56.398Z,94255.28
2023-03-17T22:13:23.061Z,94256.84
2023-03-17T22:15:49.501Z,94254.47
2023-03-17T22:18:15.976Z,94252.84
2023-03-17T22:20:42.399Z,94259.38
2023-03-17T22:23:08.846Z,94259.81
2023-03-17T22:25:36.172Z,94259.63
2023-03-17T22:28:03.811Z,94253.97
2023-03-17T22:30:31.722Z,94245.78
2023-03-17T22:32:59.077Z,94247.59
2023-03-17T22:35:25.565Z,94251.78
2023-03-17T22:37:52.029Z,94261.38
2023-03-17T22:40:18.449Z,94256.34
2023-03-17T22:42:44.938Z,94256.66
2023-03-17T22:45:13.076Z,94257.56
2023-03-17T22:47:39.721Z,94259.28
2023-03-17T22:50:07.241Z,94256.56
2023-03-17T22:52:34.816Z,94262.56
2023-03-17T22:55:01.420Z,94262.38
2023-03-17T22:57:28.999Z,94256.56
2023-03-17T22:59:57.597Z,94265.22
2023-03-17T23:02:24.191Z,94264.13
2023-03-17T23:04:50.852Z,94266.94
2023-03-17T23:07:18.455Z,94262.59
2023-03-17T23:09:46.044Z,94265.06
2023-03-17T23:12:13.629Z,94263.84
2023-03-17T23:14:42.229Z,94274.06
2023-03-17T23:17:10.978Z,94278.88
2023-03-17T23:19:38.436Z,94276.72
2023-03-17T23:22:07.036Z,94285.47
2023-03-17T23:24:34.649Z,94286.63
2023-03-17T23:27:02.256Z,94276.72
2023-03-17T23:29:29.817Z,94275.69
2023-03-17T23:31:56.297Z,94281.44
2023-03-17T23:34:23.006Z,94284.00
2023-03-17T23:36:50.590Z,94282.50
2023-03-17T23:39:17.074Z,94288.38
2023-03-17T23:41:43.511Z,94287.66
2023-03-17T23:44:09.961Z,94288.16
2023-03-17T23:46:36.406Z,94288.47
2023-03-17T23:49:03.514Z,94293.19
2023-03-17T23:51:31.116Z,94292.75
2023-03-17T23:53:57.690Z,94288.41
2023-03-17T23:56:24.270Z,94291.16
2023-03-17T23:58:51.887Z,94283.91
